Terminal Aerodrome Forecast
Issued by NWS

Home | Current Version | Previous Version | Text Only | Print | Product List | Glossary Off
Versions: 1 2 3 4 5 6 7 8 9 10 11 12 13 14 15 16 17 18 19 20 21 22 23 24 25 26 27 28 29 30 31 32 33 34 35 36 37

243
FTUS43 KLOT 212101 AAB
TAFORD
TAF AMD
KORD 212101Z 2121/2224 15011KT P6SM SCT040 BKN250
     FM212200 19010KT P6SM SCT040 BKN250
     FM220200 22011KT P6SM FEW020 BKN120
     FM221300 26008KT P6SM BKN040 BKN120 PROB30 2213/2217 4SM TSRA
      BKN030CB=

USA.gov is the U.S. government's official web portal to all federal, state and local government web resources and services.